sensor_id;sensor_type;location;lat;lon;timestamp;pressure;altitude;pressure_sealevel;temperature
76901;BMP280;65859;43.020;25.096;2023-06-22T00:00:52;99580.97;;;21.07
76901;BMP280;65859;43.020;25.096;2023-06-22T00:03:47;99579.09;;;20.44
76901;BMP280;65859;43.020;25.096;2023-06-22T00:06:13;99581.72;;;20.19
76901;BMP280;65859;43.020;25.096;2023-06-22T00:08:39;99579.09;;;20.54
76901;BMP280;65859;43.020;25.096;2023-06-22T00:11:06;99557.81;;;19.99
76901;BMP280;65859;43.020;25.096;2023-06-22T00:13:32;99581.38;;;20.41
76901;BMP280;65859;43.020;25.096;2023-06-22T00:15:59;99592.13;;;20.27
76901;BMP280;65859;43.020;25.096;2023-06-22T00:18:26;99588.16;;;19.82
76901;BMP280;65859;43.020;25.096;2023-06-22T00:20:55;99592.13;;;20.27
76901;BMP280;65859;43.020;25.096;2023-06-22T00:23:25;99594.22;;;19.65
76901;BMP280;65859;43.020;25.096;2023-06-22T00:25:51;99590.56;;;20.12
76901;BMP280;65859;43.020;25.096;2023-06-22T00:28:18;99595.97;;;20.19
76901;BMP280;65859;43.020;25.096;2023-06-22T00:30:44;99595.47;;;19.82
76901;BMP280;65859;43.020;25.096;2023-06-22T00:33:11;99593.69;;;20.25
76901;BMP280;65859;43.020;25.096;2023-06-22T00:35:37;99593.16;;;19.84
76901;BMP280;65859;43.020;25.096;2023-06-22T00:38:07;99584.59;;;19.60
76901;BMP280;65859;43.020;25.096;2023-06-22T00:40:34;99595.09;;;19.87
76901;BMP280;65859;43.020;25.096;2023-06-22T00:43:00;99602.13;;;20.23
76901;BMP280;65859;43.020;25.096;2023-06-22T00:45:27;99585.75;;;19.63
76901;BMP280;65859;43.020;25.096;2023-06-22T00:47:57;99592.56;;;19.39
76901;BMP280;65859;43.020;25.096;2023-06-22T00:50:26;99590.59;;;20.23
76901;BMP280;65859;43.020;25.096;2023-06-22T00:52:55;99586.66;;;19.88
76901;BMP280;65859;43.020;25.096;2023-06-22T00:55:22;99588.06;;;19.64
76901;BMP280;65859;43.020;25.096;2023-06-22T00:57:49;99584.03;;;20.27
76901;BMP280;65859;43.020;25.096;2023-06-22T01:00:16;99588.31;;;20.71
76901;BMP280;65859;43.020;25.096;2023-06-22T01:02:45;99589.91;;;20.72
76901;BMP280;65859;43.020;25.096;2023-06-22T01:05:13;99586.78;;;20.45
76901;BMP280;65859;43.020;25.096;2023-06-22T01:08:29;99581.84;;;18.91
76901;BMP280;65859;43.020;25.096;2023-06-22T01:10:35;99580.84;;;19.13
76901;BMP280;65859;43.020;25.096;2023-06-22T01:13:12;99577.00;;;19.11
76901;BMP280;65859;43.020;25.096;2023-06-22T01:15:49;99571.78;;;18.84
76901;BMP280;65859;43.020;25.096;2023-06-22T01:18:19;99572.41;;;19.11
76901;BMP280;65859;43.020;25.096;2023-06-22T01:20:53;99571.91;;;19.61
76901;BMP280;65859;43.020;25.096;2023-06-22T01:31:10;99567.50;;;21.11
76901;BMP280;65859;43.020;25.096;2023-06-22T01:33:41;99567.91;;;20.88
76901;BMP280;65859;43.020;25.096;2023-06-22T01:36:07;99572.53;;;20.52
76901;BMP280;65859;43.020;25.096;2023-06-22T01:38:34;99570.22;;;20.50
76901;BMP280;65859;43.020;25.096;2023-06-22T01:41:03;99565.22;;;20.52
76901;BMP280;65859;43.020;25.096;2023-06-22T01:43:30;99577.53;;;20.78
76901;BMP280;65859;43.020;25.096;2023-06-22T01:45:59;99569.00;;;21.12
76901;BMP280;65859;43.020;25.096;2023-06-22T01:48:27;99573.28;;;21.23
76901;BMP280;65859;43.020;25.096;2023-06-22T01:50:54;99578.28;;;21.03
76901;BMP280;65859;43.020;25.096;2023-06-22T01:53:22;99583.72;;;20.86
76901;BMP280;65859;43.020;25.096;2023-06-22T01:55:48;99590.59;;;21.12
76901;BMP280;65859;43.020;25.096;2023-06-22T01:58:15;99585.19;;;21.29
76901;BMP280;65859;43.020;25.096;2023-06-22T02:00:47;99587.56;;;20.95
76901;BMP280;65859;43.020;25.096;2023-06-22T02:03:25;99594.09;;;21.19
76901;BMP280;65859;43.020;25.096;2023-06-22T02:05:58;99595.69;;;20.78
76901;BMP280;65859;43.020;25.096;2023-06-22T02:08:38;99599.09;;;20.53
76901;BMP280;65859;43.020;25.096;2023-06-22T02:11:06;99593.72;;;20.60
76901;BMP280;65859;43.020;25.096;2023-06-22T02:13:33;99605.97;;;20.19
76901;BMP280;65859;43.020;25.096;2023-06-22T02:16:00;99610.31;;;20.80
76901;BMP280;65859;43.020;25.096;2023-06-22T02:18:29;99619.91;;;21.34
76901;BMP280;65859;43.020;25.096;2023-06-22T02:20:55;99612.25;;;21.01
76901;BMP280;65859;43.020;25.096;2023-06-22T02:23:21;99615.72;;;20.84
76901;BMP280;65859;43.020;25.096;2023-06-22T02:25:47;99611.84;;;20.67
76901;BMP280;65859;43.020;25.096;2023-06-22T02:28:14;99618.41;;;20.69
76901;BMP280;65859;43.020;25.096;2023-06-22T02:30:40;99618.00;;;20.42
76901;BMP280;65859;43.020;25.096;2023-06-22T02:33:06;99612.13;;;20.08
76901;BMP280;65859;43.020;25.096;2023-06-22T02:35:33;99616.38;;;20.13
76901;BMP280;65859;43.020;25.096;2023-06-22T02:38:02;99619.44;;;20.15
76901;BMP280;65859;43.020;25.096;2023-06-22T02:40:30;99628.72;;;20.21
76901;BMP280;65859;43.020;25.096;2023-06-22T02:42:57;99627.97;;;20.28
76901;BMP280;65859;43.020;25.096;2023-06-22T02:45:27;99624.13;;;20.29
76901;BMP280;65859;43.020;25.096;2023-06-22T02:47:53;99627.50;;;20.04
76901;BMP280;65859;43.020;25.096;2023-06-22T02:50:21;99618.25;;;19.95
76901;BMP280;65859;43.020;25.096;2023-06-22T02:52:48;99624.84;;;20.19
76901;BMP280;65859;43.020;25.096;2023-06-22T02:55:14;99626.03;;;20.25
76901;BMP280;65859;43.020;25.096;2023-06-22T02:57:40;99629.13;;;20.27
76901;BMP280;65859;43.020;25.096;2023-06-22T03:00:10;99624.53;;;20.49
76901;BMP280;65859;43.020;25.096;2023-06-22T03:02:50;99628.41;;;20.51
76901;BMP280;65859;43.020;25.096;2023-06-22T03:05:16;99624.34;;;19.19
76901;BMP280;65859;43.020;25.096;2023-06-22T03:07:47;99631.31;;;18.79
76901;BMP280;65859;43.020;25.096;2023-06-22T03:10:14;99628.31;;;19.39
76901;BMP280;65859;43.020;25.096;2023-06-22T03:12:41;99630.56;;;19.99
76901;BMP280;65859;43.020;25.096;2023-06-22T03:15:10;99643.97;;;19.23
76901;BMP280;65859;43.020;25.096;2023-06-22T03:17:37;99634.88;;;19.42
76901;BMP280;65859;43.020;25.096;2023-06-22T03:20:08;99644.63;;;19.68
76901;BMP280;65859;43.020;25.096;2023-06-22T03:22:40;99643.66;;;19.35
76901;BMP280;65859;43.020;25.096;2023-06-22T03:25:08;99642.69;;;19.10
76901;BMP280;65859;43.020;25.096;2023-06-22T03:27:42;99637.50;;;19.97
76901;BMP280;65859;43.020;25.096;2023-06-22T03:30:11;99642.28;;;20.78
76901;BMP280;65859;43.020;25.096;2023-06-22T03:32:37;99644.97;;;20.46
76901;BMP280;65859;43.020;25.096;2023-06-22T03:35:04;99645.66;;;19.42
76901;BMP280;65859;43.020;25.096;2023-06-22T03:37:32;99650.63;;;18.88
76901;BMP280;65859;43.020;25.096;2023-06-22T03:39:58;99647.78;;;18.37
76901;BMP280;65859;43.020;25.096;2023-06-22T03:42:25;99646.81;;;19.44
76901;BMP280;65859;43.020;25.096;2023-06-22T03:44:51;99656.16;;;19.10
76901;BMP280;65859;43.020;25.096;2023-06-22T03:47:18;99659.66;;;19.62
76901;BMP280;65859;43.020;25.096;2023-06-22T03:49:44;99656.91;;;20.63
76901;BMP280;65859;43.020;25.096;2023-06-22T03:52:10;99660.44;;;19.66
76901;BMP280;65859;43.020;25.096;2023-06-22T03:54:38;99663.00;;;19.48
76901;BMP280;65859;43.020;25.096;2023-06-22T03:57:05;99672.88;;;19.92
76901;BMP280;65859;43.020;25.096;2023-06-22T03:59:31;99672.16;;;20.05
76901;BMP280;65859;43.020;25.096;2023-06-22T04:01:58;99671.00;;;19.99
76901;BMP280;65859;43.020;25.096;2023-06-22T04:04:25;99663.66;;;19.96
76901;BMP280;65859;43.020;25.096;2023-06-22T04:06:51;99663.59;;;19.86
76901;BMP280;65859;43.020;25.096;2023-06-22T04:09:17;99661.91;;;20.50
76901;BMP280;65859;43.020;25.096;2023-06-22T04:11:44;99668.13;;;21.04
76901;BMP280;65859;43.020;25.096;2023-06-22T04:14:10;99669.22;;;20.42
76901;BMP280;65859;43.020;25.096;2023-06-22T04:16:36;99655.03;;;20.95
76901;BMP280;65859;43.020;25.096;2023-06-22T04:19:02;99663.03;;;20.46
76901;BMP280;65859;43.020;25.096;2023-06-22T04:21:29;99665.41;;;21.29
76901;BMP280;65859;43.020;25.096;2023-06-22T04:23:55;99661.88;;;21.71
76901;BMP280;65859;43.020;25.096;2023-06-22T04:26:23;99663.13;;;21.13
76901;BMP280;65859;43.020;25.096;2023-06-22T04:28:49;99665.44;;;20.97
76901;BMP280;65859;43.020;25.096;2023-06-22T04:31:17;99678.88;;;21.54
76901;BMP280;65859;43.020;25.096;2023-06-22T04:33:45;99675.88;;;22.32
76901;BMP280;65859;43.020;25.096;2023-06-22T04:36:11;99675.59;;;22.75
76901;BMP280;65859;43.020;25.096;2023-06-22T04:38:41;99683.88;;;23.02
76901;BMP280;65859;43.020;25.096;2023-06-22T04:41:08;99667.94;;;23.14
76901;BMP280;65859;43.020;25.096;2023-06-22T04:43:40;99669.41;;;23.22
76901;BMP280;65859;43.020;25.096;2023-06-22T04:46:06;99683.34;;;23.58
76901;BMP280;65859;43.020;25.096;2023-06-22T04:48:32;99678.06;;;22.55
76901;BMP280;65859;43.020;25.096;2023-06-22T04:51:02;99684.41;;;22.86
76901;BMP280;65859;43.020;25.096;2023-06-22T04:53:32;99675.25;;;23.17
76901;BMP280;65859;43.020;25.096;2023-06-22T04:55:58;99679.28;;;22.95
76901;BMP280;65859;43.020;25.096;2023-06-22T04:58:26;99684.03;;;22.84
76901;BMP280;65859;43.020;25.096;2023-06-22T05:00:58;99682.94;;;23.22
76901;BMP280;65859;43.020;25.096;2023-06-22T05:03:27;99688.59;;;23.35
76901;BMP280;65859;43.020;25.096;2023-06-22T05:05:54;99683.78;;;23.12
76901;BMP280;65859;43.020;25.096;2023-06-22T05:08:20;99680.59;;;23.62
76901;BMP280;65859;43.020;25.096;2023-06-22T05:10:46;99680.41;;;23.76
76901;BMP280;65859;43.020;25.096;2023-06-22T05:13:12;99681.81;;;23.57
76901;BMP280;65859;43.020;25.096;2023-06-22T05:15:39;99678.84;;;23.75
76901;BMP280;65859;43.020;25.096;2023-06-22T05:18:06;99686.53;;;24.11
76901;BMP280;65859;43.020;25.096;2023-06-22T05:20:32;99683.38;;;23.55
76901;BMP280;65859;43.020;25.096;2023-06-22T05:23:02;99691.00;;;23.98
76901;BMP280;65859;43.020;25.096;2023-06-22T05:25:28;99690.31;;;24.20
76901;BMP280;65859;43.020;25.096;2023-06-22T05:27:55;99691.09;;;24.21
76901;BMP280;65859;43.020;25.096;2023-06-22T05:30:22;99690.78;;;23.85
76901;BMP280;65859;43.020;25.096;2023-06-22T05:32:48;99687.25;;;23.54
76901;BMP280;65859;43.020;25.096;2023-06-22T05:35:14;99694.69;;;24.11
76901;BMP280;65859;43.020;25.096;2023-06-22T05:37:40;99700.91;;;24.38
76901;BMP280;65859;43.020;25.096;2023-06-22T05:40:07;99699.69;;;24.66
76901;BMP280;65859;43.020;25.096;2023-06-22T05:42:35;99690.78;;;24.89
76901;BMP280;65859;43.020;25.096;2023-06-22T05:45:01;99686.56;;;24.88
76901;BMP280;65859;43.020;25.096;2023-06-22T05:47:28;99693.84;;;24.68
76901;BMP280;65859;43.020;25.096;2023-06-22T05:49:54;99691.53;;;25.13
76901;BMP280;65859;43.020;25.096;2023-06-22T05:52:20;99686.31;;;25.02
76901;BMP280;65859;43.020;25.096;2023-06-22T05:54:46;99694.81;;;25.04
76901;BMP280;65859;43.020;25.096;2023-06-22T05:57:13;99684.72;;;25.24
76901;BMP280;65859;43.020;25.096;2023-06-22T05:59:40;99681.69;;;25.22
76901;BMP280;65859;43.020;25.096;2023-06-22T06:02:06;99688.59;;;24.30
76901;BMP280;65859;43.020;25.096;2023-06-22T06:04:33;99688.66;;;24.77
76901;BMP280;65859;43.020;25.096;2023-06-22T06:06:59;99687.19;;;24.72
76901;BMP280;65859;43.020;25.096;2023-06-22T06:09:25;99674.03;;;25.14
76901;BMP280;65859;43.020;25.096;2023-06-22T06:11:51;99679.81;;;24.73
76901;BMP280;65859;43.020;25.096;2023-06-22T06:14:18;99685.50;;;25.25
76901;BMP280;65859;43.020;25.096;2023-06-22T06:16:44;99679.59;;;25.07
76901;BMP280;65859;43.020;25.096;2023-06-22T06:19:10;99676.69;;;25.77
76901;BMP280;65859;43.020;25.096;2023-06-22T06:21:36;99688.28;;;25.61
76901;BMP280;65859;43.020;25.096;2023-06-22T06:24:03;99688.38;;;25.77
76901;BMP280;65859;43.020;25.096;2023-06-22T06:26:29;99693.78;;;26.13
76901;BMP280;65859;43.020;25.096;2023-06-22T06:29:00;99697.75;;;26.09
76901;BMP280;65859;43.020;25.096;2023-06-22T06:31:27;99694.13;;;26.64
76901;BMP280;65859;43.020;25.096;2023-06-22T06:33:54;99696.69;;;26.71
76901;BMP280;65859;43.020;25.096;2023-06-22T06:36:21;99698.59;;;26.06
76901;BMP280;65859;43.020;25.096;2023-06-22T06:38:47;99693.28;;;26.18
76901;BMP280;65859;43.020;25.096;2023-06-22T06:41:16;99704.00;;;26.42
76901;BMP280;65859;43.020;25.096;2023-06-22T06:43:42;99706.56;;;26.65
76901;BMP280;65859;43.020;25.096;2023-06-22T06:46:12;99702.66;;;26.17
76901;BMP280;65859;43.020;25.096;2023-06-22T06:48:41;99694.19;;;26.12
76901;BMP280;65859;43.020;25.096;2023-06-22T06:51:08;99686.34;;;26.17
76901;BMP280;65859;43.020;25.096;2023-06-22T06:53:37;99692.78;;;25.87
76901;BMP280;65859;43.020;25.096;2023-06-22T06:56:03;99692.47;;;26.02
76901;BMP280;65859;43.020;25.096;2023-06-22T06:58:31;99682.69;;;25.88
76901;BMP280;65859;43.020;25.096;2023-06-22T07:00:58;99693.13;;;26.42
76901;BMP280;65859;43.020;25.096;2023-06-22T07:03:26;99679.50;;;27.32
76901;BMP280;65859;43.020;25.096;2023-06-22T07:05:52;99686.53;;;26.88
76901;BMP280;65859;43.020;25.096;2023-06-22T07:08:18;99690.47;;;27.70
76901;BMP280;65859;43.020;25.096;2023-06-22T07:10:45;99692.56;;;27.91
76901;BMP280;65859;43.020;25.096;2023-06-22T07:13:11;99687.75;;;28.34
76901;BMP280;65859;43.020;25.096;2023-06-22T07:15:38;99682.75;;;28.67
76901;BMP280;65859;43.020;25.096;2023-06-22T07:18:04;99684.53;;;28.48
76901;BMP280;65859;43.020;25.096;2023-06-22T07:20:30;99680.50;;;28.40
76901;BMP280;65859;43.020;25.096;2023-06-22T07:22:57;99684.06;;;28.49
76901;BMP280;65859;43.020;25.096;2023-06-22T07:25:24;99686.09;;;27.73
76901;BMP280;65859;43.020;25.096;2023-06-22T07:28:07;99698.31;;;28.44
76901;BMP280;65859;43.020;25.096;2023-06-22T07:30:34;99692.47;;;29.33
76901;BMP280;65859;43.020;25.096;2023-06-22T07:33:01;99690.13;;;29.84
76901;BMP280;65859;43.020;25.096;2023-06-22T07:35:31;99691.88;;;28.94
76901;BMP280;65859;43.020;25.096;2023-06-22T07:37:58;99690.59;;;28.99
76901;BMP280;65859;43.020;25.096;2023-06-22T07:40:24;99689.03;;;29.42
76901;BMP280;65859;43.020;25.096;2023-06-22T07:42:51;99688.19;;;30.03
76901;BMP280;65859;43.020;25.096;2023-06-22T07:45:20;99687.97;;;29.79
76901;BMP280;65859;43.020;25.096;2023-06-22T07:47:46;99690.97;;;29.32
76901;BMP280;65859;43.020;25.096;2023-06-22T07:50:13;99691.34;;;28.99
76901;BMP280;65859;43.020;25.096;2023-06-22T07:52:39;99687.91;;;29.39
76901;BMP280;65859;43.020;25.096;2023-06-22T07:55:05;99684.50;;;29.57
76901;BMP280;65859;43.020;25.096;2023-06-22T07:57:32;99681.28;;;28.75
76901;BMP280;65859;43.020;25.096;2023-06-22T08:00:04;99678.56;;;28.15
76901;BMP280;65859;43.020;25.096;2023-06-22T08:02:38;99682.41;;;28.30
76901;BMP280;65859;43.020;25.096;2023-06-22T08:05:05;99676.41;;;28.57
76901;BMP280;65859;43.020;25.096;2023-06-22T08:07:35;99672.97;;;29.53
76901;BMP280;65859;43.020;25.096;2023-06-22T08:10:04;99675.56;;;29.96
76901;BMP280;65859;43.020;25.096;2023-06-22T08:12:31;99680.44;;;29.30
76901;BMP280;65859;43.020;25.096;2023-06-22T08:14:57;99681.91;;;29.22
76901;BMP280;65859;43.020;25.096;2023-06-22T08:17:27;99674.72;;;28.72
76901;BMP280;65859;43.020;25.096;2023-06-22T08:19:53;99675.25;;;29.23
76901;BMP280;65859;43.020;25.096;2023-06-22T08:22:19;99669.97;;;29.29
76901;BMP280;65859;43.020;25.096;2023-06-22T08:24:46;99659.53;;;29.86
76901;BMP280;65859;43.020;25.096;2023-06-22T08:27:12;99663.41;;;30.06
76901;BMP280;65859;43.020;25.096;2023-06-22T08:29:39;99668.31;;;30.30
76901;BMP280;65859;43.020;25.096;2023-06-22T08:32:11;99662.22;;;30.44
76901;BMP280;65859;43.020;25.096;2023-06-22T08:34:37;99665.56;;;30.30
76901;BMP280;65859;43.020;25.096;2023-06-22T08:37:08;99664.38;;;30.31
76901;BMP280;65859;43.020;25.096;2023-06-22T08:39:35;99668.03;;;30.64
76901;BMP280;65859;43.020;25.096;2023-06-22T08:42:01;99667.53;;;30.66
76901;BMP280;65859;43.020;25.096;2023-06-22T08:44:27;99669.25;;;30.54
76901;BMP280;65859;43.020;25.096;2023-06-22T08:46:54;99668.91;;;30.70
76901;BMP280;65859;43.020;25.096;2023-06-22T08:49:20;99668.31;;;30.94
76901;BMP280;65859;43.020;25.096;2023-06-22T08:51:47;99671.06;;;30.48
76901;BMP280;65859;43.020;25.096;2023-06-22T08:54:15;99672.38;;;29.98
76901;BMP280;65859;43.020;25.096;2023-06-22T08:56:41;99669.00;;;31.12
76901;BMP280;65859;43.020;25.096;2023-06-22T08:59:10;99670.13;;;31.39
76901;BMP280;65859;43.020;25.096;2023-06-22T09:01:36;99677.09;;;30.89
76901;BMP280;65859;43.020;25.096;2023-06-22T09:04:03;99669.31;;;29.96
76901;BMP280;65859;43.020;25.096;2023-06-22T09:06:32;99672.34;;;31.26
76901;BMP280;65859;43.020;25.096;2023-06-22T09:08:58;99663.69;;;31.09
76901;BMP280;65859;43.020;25.096;2023-06-22T09:11:29;99671.88;;;31.18
76901;BMP280;65859;43.020;25.096;2023-06-22T09:13:55;99670.41;;;30.08
76901;BMP280;65859;43.020;25.096;2023-06-22T09:16:22;99674.00;;;31.14
76901;BMP280;65859;43.020;25.096;2023-06-22T09:18:48;99765.13;;;36.59
76901;BMP280;65859;43.020;25.096;2023-06-22T09:21:15;99782.72;;;36.45
76901;BMP280;65859;43.020;25.096;2023-06-22T09:23:41;99791.09;;;34.71
76901;BMP280;65859;43.020;25.096;2023-06-22T09:26:08;99772.03;;;33.87
76901;BMP280;65859;43.020;25.096;2023-06-22T09:28:34;99725.66;;;35.03
76901;BMP280;65859;43.020;25.096;2023-06-22T09:31:01;99658.84;;;32.85
76901;BMP280;65859;43.020;25.096;2023-06-22T09:33:27;99663.53;;;31.12
76901;BMP280;65859;43.020;25.096;2023-06-22T09:35:53;99656.13;;;31.70
76901;BMP280;65859;43.020;25.096;2023-06-22T09:38:23;99650.91;;;31.48
76901;BMP280;65859;43.020;25.096;2023-06-22T09:40:49;99646.28;;;31.21
76901;BMP280;65859;43.020;25.096;2023-06-22T09:43:17;99645.81;;;31.79
76901;BMP280;65859;43.020;25.096;2023-06-22T09:45:43;99643.03;;;31.65
76901;BMP280;65859;43.020;25.096;2023-06-22T09:48:10;99647.88;;;31.94
76901;BMP280;65859;43.020;25.096;2023-06-22T09:50:36;99643.56;;;31.12
76901;BMP280;65859;43.020;25.096;2023-06-22T09:53:03;99644.31;;;31.55
76901;BMP280;65859;43.020;25.096;2023-06-22T09:55:29;99638.47;;;32.77
76901;BMP280;65859;43.020;25.096;2023-06-22T09:57:55;99634.84;;;32.56
76901;BMP280;65859;43.020;25.096;2023-06-22T10:00:22;99638.41;;;31.95
76901;BMP280;65859;43.020;25.096;2023-06-22T10:02:48;99636.84;;;31.79
76901;BMP280;65859;43.020;25.096;2023-06-22T10:05:15;99641.97;;;31.29
76901;BMP280;65859;43.020;25.096;2023-06-22T10:07:41;99639.31;;;31.02
76901;BMP280;65859;43.020;25.096;2023-06-22T10:10:11;99647.91;;;30.58
76901;BMP280;65859;43.020;25.096;2023-06-22T10:12:40;99642.72;;;30.69
76901;BMP280;65859;43.020;25.096;2023-06-22T10:15:09;99643.00;;;30.81
76901;BMP280;65859;43.020;25.096;2023-06-22T10:17:35;99632.03;;;30.81
76901;BMP280;65859;43.020;25.096;2023-06-22T10:20:01;99635.53;;;30.90
76901;BMP280;65859;43.020;25.096;2023-06-22T10:22:36;99631.03;;;30.14
76901;BMP280;65859;43.020;25.096;2023-06-22T10:25:02;99629.03;;;30.60
76901;BMP280;65859;43.020;25.096;2023-06-22T10:27:28;99638.84;;;31.12
76901;BMP280;65859;43.020;25.096;2023-06-22T10:29:55;99636.38;;;31.57
76901;BMP280;65859;43.020;25.096;2023-06-22T10:32:21;99633.94;;;31.49
76901;BMP280;65859;43.020;25.096;2023-06-22T10:34:47;99631.88;;;31.68
76901;BMP280;65859;43.020;25.096;2023-06-22T10:37:13;99626.88;;;31.25
76901;BMP280;65859;43.020;25.096;2023-06-22T10:39:40;99622.72;;;30.96
76901;BMP280;65859;43.020;25.096;2023-06-22T10:42:06;99617.59;;;31.55
76901;BMP280;65859;43.020;25.096;2023-06-22T10:44:33;99613.19;;;30.83
76901;BMP280;65859;43.020;25.096;2023-06-22T10:47:01;99586.97;;;31.24
76901;BMP280;65859;43.020;25.096;2023-06-22T10:49:27;99615.88;;;31.01
76901;BMP280;65859;43.020;25.096;2023-06-22T10:51:53;99606.19;;;30.45
76901;BMP280;65859;43.020;25.096;2023-06-22T10:54:19;99610.06;;;31.41
76901;BMP280;65859;43.020;25.096;2023-06-22T10:56:46;99611.47;;;31.60
76901;BMP280;65859;43.020;25.096;2023-06-22T10:59:12;99610.19;;;32.33
76901;BMP280;65859;43.020;25.096;2023-06-22T11:01:38;99610.84;;;32.42
76901;BMP280;65859;43.020;25.096;2023-06-22T11:04:04;99609.66;;;32.05
76901;BMP280;65859;43.020;25.096;2023-06-22T11:06:31;99609.38;;;31.55
76901;BMP280;65859;43.020;25.096;2023-06-22T11:08:57;99609.38;;;32.03
76901;BMP280;65859;43.020;25.096;2023-06-22T11:11:25;99606.19;;;32.34
76901;BMP280;65859;43.020;25.096;2023-06-22T11:13:52;99617.97;;;32.49
76901;BMP280;65859;43.020;25.096;2023-06-22T11:16:18;99606.59;;;32.56
76901;BMP280;65859;43.020;25.096;2023-06-22T11:18:46;99614.50;;;32.10
76901;BMP280;65859;43.020;25.096;2023-06-22T11:21:12;99611.22;;;32.35
76901;BMP280;65859;43.020;25.096;2023-06-22T11:23:38;99612.63;;;32.31
76901;BMP280;65859;43.020;25.096;2023-06-22T11:26:05;99609.72;;;32.49
76901;BMP280;65859;43.020;25.096;2023-06-22T11:28:31;99609.47;;;32.23
76901;BMP280;65859;43.020;25.096;2023-06-22T11:30:57;99604.31;;;32.40
76901;BMP280;65859;43.020;25.096;2023-06-22T11:33:24;99587.78;;;32.10
76901;BMP280;65859;43.020;25.096;2023-06-22T11:35:50;99608.72;;;32.08
76901;BMP280;65859;43.020;25.096;2023-06-22T11:38:16;99606.50;;;32.36
76901;BMP280;65859;43.020;25.096;2023-06-22T11:40:43;99607.19;;;32.07
76901;BMP280;65859;43.020;25.096;2023-06-22T11:43:09;99601.84;;;32.27
76901;BMP280;65859;43.020;25.096;2023-06-22T11:45:35;99596.63;;;32.73
76901;BMP280;65859;43.020;25.096;2023-06-22T11:48:02;99607.56;;;31.52
76901;BMP280;65859;43.020;25.096;2023-06-22T11:50:29;99607.53;;;30.86
76901;BMP280;65859;43.020;25.096;2023-06-22T11:53:00;99596.44;;;30.71
76901;BMP280;65859;43.020;25.096;2023-06-22T11:55:27;99596.31;;;30.38
76901;BMP280;65859;43.020;25.096;2023-06-22T11:57:55;99600.25;;;30.56
76901;BMP280;65859;43.020;25.096;2023-06-22T12:00:22;99590.88;;;30.99
76901;BMP280;65859;43.020;25.096;2023-06-22T12:02:56;99586.19;;;31.56
76901;BMP280;65859;43.020;25.096;2023-06-22T12:05:22;99590.84;;;31.08
76901;BMP280;65859;43.020;25.096;2023-06-22T12:07:50;99582.00;;;31.13
76901;BMP280;65859;43.020;25.096;2023-06-22T12:10:17;99584.06;;;31.51
76901;BMP280;65859;43.020;25.096;2023-06-22T12:12:43;99583.41;;;31.32
76901;BMP280;65859;43.020;25.096;2023-06-22T12:15:10;99594.59;;;31.76
76901;BMP280;65859;43.020;25.096;2023-06-22T12:17:37;99585.91;;;31.54
76901;BMP280;65859;43.020;25.096;2023-06-22T12:20:03;99588.25;;;31.70
76901;BMP280;65859;43.020;25.096;2023-06-22T12:22:33;99588.13;;;31.65
76901;BMP280;65859;43.020;25.096;2023-06-22T12:25:00;99578.81;;;31.62
76901;BMP280;65859;43.020;25.096;2023-06-22T12:27:27;99586.25;;;31.71
76901;BMP280;65859;43.020;25.096;2023-06-22T12:29:54;99578.69;;;31.80
76901;BMP280;65859;43.020;25.096;2023-06-22T12:32:20;99582.81;;;31.28
76901;BMP280;65859;43.020;25.096;2023-06-22T12:34:46;99569.34;;;31.06
76901;BMP280;65859;43.020;25.096;2023-06-22T12:37:13;99566.78;;;31.03
76901;BMP280;65859;43.020;25.096;2023-06-22T12:39:41;99569.59;;;31.74
76901;BMP280;65859;43.020;25.096;2023-06-22T12:42:08;99570.28;;;31.60
76901;BMP280;65859;43.020;25.096;2023-06-22T12:44:35;99564.22;;;31.56
76901;BMP280;65859;43.020;25.096;2023-06-22T12:47:01;99564.78;;;31.36
76901;BMP280;65859;43.020;25.096;2023-06-22T12:49:27;99560.44;;;31.54
76901;BMP280;65859;43.020;25.096;2023-06-22T12:51:54;99563.34;;;31.26
76901;BMP280;65859;43.020;25.096;2023-06-22T12:54:21;99553.13;;;31.27
76901;BMP280;65859;43.020;25.096;2023-06-22T12:56:47;99554.69;;;31.42
76901;BMP280;65859;43.020;25.096;2023-06-22T12:59:14;99547.09;;;31.61
76901;BMP280;65859;43.020;25.096;2023-06-22T13:01:40;99554.91;;;31.63
76901;BMP280;65859;43.020;25.096;2023-06-22T13:04:06;99546.53;;;31.81
76901;BMP280;65859;43.020;25.096;2023-06-22T13:06:32;99539.16;;;31.87
76901;BMP280;65859;43.020;25.096;2023-06-22T13:08:59;99541.31;;;31.83
76901;BMP280;65859;43.020;25.096;2023-06-22T13:11:25;99541.06;;;31.57
76901;BMP280;65859;43.020;25.096;2023-06-22T13:13:51;99538.91;;;31.76
76901;BMP280;65859;43.020;25.096;2023-06-22T13:16:17;99542.66;;;31.64
76901;BMP280;65859;43.020;25.096;2023-06-22T13:18:44;99522.00;;;31.54
76901;BMP280;65859;43.020;25.096;2023-06-22T13:21:10;99532.25;;;31.92
76901;BMP280;65859;43.020;25.096;2023-06-22T13:23:36;99534.25;;;32.06
76901;BMP280;65859;43.020;25.096;2023-06-22T13:26:04;99524.81;;;31.83
76901;BMP280;65859;43.020;25.096;2023-06-22T13:28:30;99532.22;;;31.29
76901;BMP280;65859;43.020;25.096;2023-06-22T13:30:56;99526.13;;;31.01
76901;BMP280;65859;43.020;25.096;2023-06-22T13:33:23;99523.09;;;31.47
76901;BMP280;65859;43.020;25.096;2023-06-22T13:35:49;99526.50;;;31.80
76901;BMP280;65859;43.020;25.096;2023-06-22T13:38:15;99534.38;;;31.73
76901;BMP280;65859;43.020;25.096;2023-06-22T13:40:43;99528.66;;;31.62
76901;BMP280;65859;43.020;25.096;2023-06-22T13:43:09;99531.00;;;31.30
76901;BMP280;65859;43.020;25.096;2023-06-22T13:45:36;99529.13;;;31.12
76901;BMP280;65859;43.020;25.096;2023-06-22T13:48:02;99533.34;;;30.81
76901;BMP280;65859;43.020;25.096;2023-06-22T13:50:28;99523.63;;;30.70
76901;BMP280;65859;43.020;25.096;2023-06-22T13:52:56;99527.84;;;30.81
76901;BMP280;65859;43.020;25.096;2023-06-22T13:55:22;99531.13;;;31.03
76901;BMP280;65859;43.020;25.096;2023-06-22T13:57:50;99527.66;;;30.51
76901;BMP280;65859;43.020;25.096;2023-06-22T14:00:17;99522.31;;;30.48
76901;BMP280;65859;43.020;25.096;2023-06-22T14:02:44;99529.81;;;30.38
76901;BMP280;65859;43.020;25.096;2023-06-22T14:05:10;99517.81;;;30.17